Time;durP1;ratioP1;P1;durP2;ratioP2;P2;SDS_P1;SDS_P2;PMS_P1;PMS_P2;Temp;Humidity;BMP_temperature;BMP_pressure;BME280_temperature;BME280_humidity;BME280_pressure;Samples;Min_cycle;Max_cycle;Signal;HPM_P1;HPM_P2
2021/08/30 00:01:46;;;;;;;17.77;9.65;;;;;;;15.86;94.85;102044.44;5075931;28;20028;-36
2021/08/30 00:04:11;;;;;;;14.30;9.40;;;;;;;15.87;94.84;102039.81;5075483;28;20422;-35
2021/08/30 00:06:36;;;;;;;12.37;8.77;;;;;;;15.84;94.46;102046.56;5075332;28;20024;-36
2021/08/30 00:09:05;;;;;;;12.75;9.65;;;;;;;15.85;94.23;102044.66;5075509;28;20331;-36
2021/08/30 00:11:30;;;;;;;11.80;9.15;;;;;;;15.83;94.05;102046.81;5075494;28;20045;-36
2021/08/30 00:13:55;;;;;;;12.43;8.63;;;;;;;15.84;93.89;102049.28;5075455;28;20038;-36
2021/08/30 00:16:20;;;;;;;;;;;;;;;15.88;93.58;102038.75;5075543;28;20024;-36
2021/08/30 00:18:46;;;;;;;13.30;10.23;;;;;;;15.76;93.54;102037.91;5075025;28;20005;-36
2021/08/30 00:21:12;;;;;;;;;;;;;;;15.81;93.75;102033.44;5075884;28;20066;-36
2021/08/30 00:23:37;;;;;;;17.00;9.35;;;;;;;15.62;93.86;102027.22;5074849;28;20375;-36
2021/08/30 00:26:04;;;;;;;13.32;9.30;;;;;;;15.69;93.99;102033.41;5074776;28;20032;-36
2021/08/30 00:28:31;;;;;;;14.15;10.05;;;;;;;15.64;93.94;102035.19;5074719;28;20096;-36
2021/08/30 00:30:56;;;;;;;16.23;9.68;;;;;;;15.58;94.45;102031.47;5075429;28;20369;-36
2021/08/30 00:33:21;;;;;;;13.10;9.93;;;;;;;15.60;94.58;102042.13;5074687;28;20016;-36
2021/08/30 00:35:47;;;;;;;12.87;8.87;;;;;;;15.58;94.10;102036.09;5074705;28;20081;-36
2021/08/30 00:38:12;;;;;;;15.63;9.98;;;;;;;15.52;94.35;102024.25;5075105;28;20267;-36
2021/08/30 00:40:37;;;;;;;12.95;9.02;;;;;;;15.57;94.30;102029.81;5074576;28;20032;-36
2021/08/30 00:43:04;;;;;;;15.82;9.43;;;;;;;15.59;94.87;102037.75;5074587;28;20032;-36
2021/08/30 00:45:29;;;;;;;14.90;10.07;;;;;;;15.55;94.67;102042.84;5073927;28;20034;-36
2021/08/30 00:47:55;;;;;;;14.43;9.43;;;;;;;15.55;94.45;102040.09;5074512;28;20115;-36
2021/08/30 00:50:21;;;;;;;16.42;10.25;;;;;;;15.56;95.10;102039.03;5074370;28;20089;-35
2021/08/30 00:52:47;;;;;;;13.43;9.73;;;;;;;15.53;94.79;102038.69;5074648;28;20020;-36
2021/08/30 00:55:14;;;;;;;12.40;9.75;;;;;;;15.49;94.78;102032.06;5074316;28;20492;-36
2021/08/30 00:57:39;;;;;;;15.27;10.90;;;;;;;15.55;95.14;102034.66;5074415;28;20024;-39
2021/08/30 01:00:07;;;;;;;12.80;9.00;;;;;;;15.55;95.05;102042.84;5074212;28;20025;-36
2021/08/30 01:02:33;;;;;;;15.82;10.25;;;;;;;15.52;94.92;102045.19;5072637;28;20040;-36
2021/08/30 01:05:00;;;;;;;11.80;10.05;;;;;;;15.52;95.06;102037.88;5074095;28;20371;-35
2021/08/30 01:07:56;;;;;;;14.77;9.60;;;;;;;15.54;94.74;102043.09;5074287;28;20039;-36
2021/08/30 01:10:40;;;;;;;15.02;10.13;;;;;;;15.48;95.11;102052.19;5074680;28;20036;-36
2021/08/30 01:13:12;;;;;;;12.82;9.77;;;;;;;15.47;94.88;102059.56;5073659;28;20047;-36
2021/08/30 01:15:40;;;;;;;12.88;10.40;;;;;;;15.35;95.25;102036.88;5074172;28;20092;-36
2021/08/30 01:18:09;;;;;;;12.13;9.82;;;;;;;15.41;95.08;102052.28;5074121;28;20028;-36
2021/08/30 01:21:12;;;;;;;14.13;9.93;;;;;;;15.45;95.23;102056.22;5073703;28;20027;-36
2021/08/30 01:23:40;;;;;;;14.73;9.93;;;;;;;15.34;95.19;102057.84;5073956;28;20038;-36
2021/08/30 01:26:09;;;;;;;14.55;10.60;;;;;;;15.34;95.04;102055.13;5074117;28;20064;-36
2021/08/30 01:28:42;;;;;;;16.10;10.40;;;;;;;15.35;94.48;102055.97;5074150;28;20028;-36
2021/08/30 01:31:19;;;;;;;13.32;9.88;;;;;;;15.28;95.12;102057.97;5073792;28;20482;-35
2021/08/30 01:33:49;;;;;;;16.98;10.13;;;;;;;15.14;95.16;102038.25;5073699;28;20107;-36
2021/08/30 01:36:14;;;;;;;13.40;10.50;;;;;;;15.25;95.45;102056.53;5073920;28;20040;-36
2021/08/30 01:38:45;;;;;;;16.73;10.93;;;;;;;15.22;95.74;102056.16;5073683;28;20016;-36
2021/08/30 01:41:14;;;;;;;17.67;11.13;;;;;;;15.23;95.39;102053.22;5073416;28;20040;-36
2021/08/30 01:43:39;;;;;;;14.52;10.43;;;;;;;15.26;95.96;102060.06;5073362;28;20056;-36
2021/08/30 01:46:06;;;;;;;15.57;11.23;;;;;;;15.29;95.77;102055.00;5073728;28;20112;-36
2021/08/30 01:48:31;;;;;;;14.85;9.65;;;;;;;15.29;95.89;102054.16;5073040;28;20457;-36
2021/08/30 01:50:57;;;;;;;14.95;10.57;;;;;;;15.32;96.04;102059.13;5073511;28;20024;-36
2021/08/30 01:53:23;;;;;;;15.95;10.55;;;;;;;15.32;96.26;102059.97;5073323;28;20497;-36
2021/08/30 01:55:52;;;;;;;15.25;10.35;;;;;;;15.33;96.17;102055.38;5072645;28;20027;-36
2021/08/30 02:00:47;;;;;;;14.23;10.45;;;;;;;15.38;95.87;102052.78;5073476;28;20036;-36
2021/08/30 02:03:28;;;;;;;13.00;10.45;;;;;;;15.40;96.39;102056.09;5073035;28;20025;-36
2021/08/30 02:06:05;;;;;;;14.80;9.13;;;;;;;15.42;95.62;102060.25;5073236;28;20514;-36
2021/08/30 02:08:33;;;;;;;11.98;9.35;;;;;;;15.41;95.86;102055.00;5073129;28;20016;-36
2021/08/30 02:11:06;;;;;;;12.98;9.77;;;;;;;15.34;95.69;102043.41;5073196;28;20040;-36
2021/08/30 02:13:32;;;;;;;16.23;10.50;;;;;;;15.43;96.23;102058.34;5072891;28;20066;-36
2021/08/30 02:15:59;;;;;;;15.25;10.23;;;;;;;15.43;96.07;102063.81;5073258;28;20032;-36
2021/08/30 02:18:45;;;;;;;18.65;10.98;;;;;;;15.44;96.20;102060.84;5073102;28;20032;-36
2021/08/30 02:21:36;;;;;;;15.30;9.98;;;;;;;15.46;95.97;102055.16;5073129;28;20130;-36
2021/08/30 02:24:29;;;;;;;17.17;10.82;;;;;;;15.45;96.02;102059.78;5072585;28;20115;-36
2021/08/30 02:27:27;;;;;;;13.77;10.50;;;;;;;15.46;96.31;102055.16;5072640;28;20025;-36
2021/08/30 02:30:03;;;;;;;15.48;11.45;;;;;;;15.47;96.28;102051.38;5067880;28;20037;-36
2021/08/30 02:32:31;;;;;;;13.18;10.05;;;;;;;15.49;95.80;102053.84;5072654;28;20028;-36
2021/08/30 02:34:59;;;;;;;12.85;10.02;;;;;;;15.45;95.92;102058.94;5072437;28;20041;-36
2021/08/30 02:37:28;;;;;;;14.88;10.60;;;;;;;15.44;95.99;102057.28;5072834;28;20444;-36
2021/08/30 02:39:54;;;;;;;14.52;10.48;;;;;;;15.46;96.31;102049.69;5072753;28;20021;-36
2021/08/30 02:42:20;;;;;;;;;;;;;;;15.53;95.69;102057.78;5073252;28;20060;-36
2021/08/30 02:44:46;;;;;;;12.00;9.80;;;;;;;15.44;96.30;102052.66;5073050;28;19905;-36
2021/08/30 02:47:13;;;;;;;13.73;10.50;;;;;;;15.42;96.40;102041.19;5073281;28;20025;-36
2021/08/30 02:49:43;;;;;;;17.40;10.20;;;;;;;15.44;96.14;102055.38;5072565;28;20025;-36
2021/08/30 02:52:13;;;;;;;13.20;9.85;;;;;;;15.46;96.20;102046.97;5073000;28;20127;-36
2021/08/30 02:54:42;;;;;;;13.38;9.73;;;;;;;15.43;95.74;102055.63;5072264;28;20471;-36
2021/08/30 02:57:08;;;;;;;13.93;8.95;;;;;;;15.40;96.31;102050.63;5073087;28;20020;-36
2021/08/30 02:59:34;;;;;;;16.10;10.13;;;;;;;15.42;96.01;102051.22;5073049;28;20050;-36
2021/08/30 03:02:01;;;;;;;13.10;9.80;;;;;;;15.39;95.74;102047.09;5072733;28;20032;-36
2021/08/30 03:04:27;;;;;;;11.60;9.32;;;;;;;15.24;96.24;102024.91;5073105;28;20074;-36
2021/08/30 03:06:53;;;;;;;;;;;;;;;15.49;95.60;102051.97;5072600;28;20480;-36
2021/08/30 03:09:18;;;;;;;12.88;9.88;;;;;;;15.44;95.68;102052.66;5075705;28;19904;-36
2021/08/30 03:11:47;;;;;;;13.57;10.73;;;;;;;15.39;95.97;102040.81;5076449;28;20131;-36
2021/08/30 03:14:15;;;;;;;11.55;9.65;;;;;;;15.30;95.74;102026.69;5076088;28;20028;-36
2021/08/30 03:16:41;;;;;;;15.65;9.57;;;;;;;15.37;96.17;102034.75;5076269;28;20048;-36
2021/08/30 03:19:11;;;;;;;12.90;9.88;;;;;;;15.42;95.57;102027.53;5076155;28;20094;-36
2021/08/30 03:21:38;;;;;;;13.75;9.88;;;;;;;15.40;95.81;102039.72;5076696;28;20025;-36
2021/08/30 03:24:06;;;;;;;14.18;10.93;;;;;;;15.30;96.10;102029.41;5075675;28;20452;-36
2021/08/30 03:26:32;;;;;;;16.70;9.50;;;;;;;15.31;95.43;102022.88;5075759;28;20028;-36
2021/08/30 03:28:58;;;;;;;;;;;;;;;15.49;95.08;102029.31;5076435;28;20048;-36
2021/08/30 03:31:26;;;;;;;11.82;9.80;;;;;;;15.42;95.33;102046.63;5075746;28;19955;-36
2021/08/30 03:33:52;;;;;;;18.17;9.73;;;;;;;15.41;95.44;102047.66;5075970;28;20028;-36
2021/08/30 03:36:17;;;;;;;11.77;9.77;;;;;;;15.31;95.53;102028.34;5075146;28;20021;-36
2021/08/30 03:38:43;;;;;;;14.13;10.23;;;;;;;15.43;95.74;102042.00;5075772;28;20024;-36
2021/08/30 03:41:08;;;;;;;;;;;;;;;15.50;95.29;102042.72;5075878;28;20500;-36
2021/08/30 03:43:35;;;;;;;14.27;9.37;;;;;;;15.37;95.37;102038.31;5075705;28;19955;-36
2021/08/30 03:46:00;;;;;;;11.82;9.88;;;;;;;15.41;95.26;102041.38;5076169;28;20399;-36
2021/08/30 03:48:28;;;;;;;11.48;9.20;;;;;;;15.42;95.08;102046.63;5075346;28;20111;-36
2021/08/30 03:50:54;;;;;;;12.30;9.27;;;;;;;15.39;95.25;102049.81;5075869;28;20074;-36
2021/08/30 03:53:21;;;;;;;14.00;10.45;;;;;;;15.39;95.34;102047.09;5075381;28;20025;-36
2021/08/30 03:55:47;;;;;;;13.77;10.30;;;;;;;15.36;95.26;102041.25;5075683;28;20358;-36
2021/08/30 03:58:14;;;;;;;;;;;;;;;15.45;95.09;102051.59;5075595;28;20429;-36
2021/08/30 04:00:40;;;;;;;14.48;9.27;;;;;;;15.34;95.50;102037.94;5075368;28;19904;-36
2021/08/30 04:03:09;;;;;;;15.27;9.73;;;;;;;15.35;95.35;102039.59;5075352;28;20040;-36
2021/08/30 04:05:35;;;;;;;12.88;9.00;;;;;;;15.36;95.89;102046.72;5075280;28;20108;-36
2021/08/30 04:08:01;;;;;;;14.65;11.15;;;;;;;15.35;95.43;102039.59;5075516;28;20120;-36
2021/08/30 04:10:28;;;;;;;14.68;10.15;;;;;;;15.33;95.55;102028.94;5075818;28;20052;-36
2021/08/30 04:12:55;;;;;;;12.93;9.93;;;;;;;15.38;95.66;102033.69;5074763;28;20024;-36
2021/08/30 04:15:21;;;;;;;14.90;10.55;;;;;;;15.33;95.76;102034.41;5075848;28;20021;-36
2021/08/30 04:17:47;;;;;;;16.38;11.82;;;;;;;15.27;95.58;102018.13;5075603;28;20024;-36
2021/08/30 04:20:12;;;;;;;13.20;10.48;;;;;;;15.34;95.96;102030.59;5074145;28;20107;-36
2021/08/30 04:22:38;;;;;;;15.25;10.98;;;;;;;15.34;96.11;102044.22;5075258;28;20036;-36
2021/08/30 04:25:04;;;;;;;14.82;11.02;;;;;;;15.32;95.78;102037.34;5075026;28;20047;-36
2021/08/30 04:27:29;;;;;;;14.52;11.35;;;;;;;15.31;96.26;102036.50;5075309;28;20403;-36
2021/08/30 04:29:54;;;;;;;15.60;10.83;;;;;;;15.31;95.73;102032.97;5074898;28;20024;-35
2021/08/30 04:32:20;;;;;;;;;;;;;;;15.36;95.63;102028.47;5075614;28;20013;-36
2021/08/30 04:34:45;;;;;;;14.23;10.38;;;;;;;15.26;96.04;102024.66;5075368;28;19912;-36
2021/08/30 04:37:11;;;;;;;18.65;11.25;;;;;;;15.28;95.70;102033.44;5075205;28;20114;-36
2021/08/30 04:39:36;;;;;;;17.48;11.13;;;;;;;15.29;96.24;102038.66;5074796;28;20096;-36
2021/08/30 04:42:04;;;;;;;15.10;11.65;;;;;;;15.27;96.04;102046.22;5075087;28;20028;-36
2021/08/30 04:44:29;;;;;;;15.05;11.60;;;;;;;15.25;96.30;102042.91;5074512;28;20355;-36
2021/08/30 04:46:55;;;;;;;13.80;10.73;;;;;;;15.18;96.36;102040.28;5075020;28;20032;-36
2021/08/30 04:49:20;;;;;;;18.70;12.10;;;;;;;15.17;95.96;102027.69;5074581;28;20095;-36
2021/08/30 04:51:45;;;;;;;13.35;10.88;;;;;;;15.29;96.32;102051.44;5074491;28;20047;-36
2021/08/30 04:54:11;;;;;;;15.90;10.97;;;;;;;15.27;96.03;102042.66;5074000;28;20034;-36
2021/08/30 04:56:36;;;;;;;15.35;11.60;;;;;;;15.27;96.03;102053.56;5074307;28;20352;-36
2021/08/30 04:59:01;;;;;;;17.27;12.65;;;;;;;15.28;96.45;102052.53;5074155;28;20020;-36
2021/08/30 05:01:27;;;;;;;17.45;11.05;;;;;;;15.26;96.02;102043.72;5074643;28;20355;-36
2021/08/30 05:03:53;;;;;;;17.55;11.52;;;;;;;15.31;96.26;102052.03;5074052;28;20039;-36
2021/08/30 05:06:19;;;;;;;18.45;11.65;;;;;;;15.31;96.64;102058.31;5075014;28;20055;-36
2021/08/30 05:08:44;;;;;;;17.73;12.82;;;;;;;15.31;96.05;102057.47;5073674;28;20481;-36
2021/08/30 05:11:10;;;;;;;15.50;12.15;;;;;;;15.32;95.91;102061.88;5073990;28;20044;-36
2021/08/30 05:13:35;;;;;;;15.15;12.13;;;;;;;15.23;96.53;102049.66;5072011;28;20090;-36
2021/08/30 05:16:01;;;;;;;15.13;11.00;;;;;;;15.33;95.93;102058.09;5073917;28;20020;-36
2021/08/30 05:18:26;;;;;;;;;;;;;;;15.40;95.92;102059.63;5074239;28;20017;-36
2021/08/30 05:20:53;;;;;;;20.63;12.93;;;;;;;15.29;95.99;102049.56;5074546;28;19922;-36
2021/08/30 05:23:18;;;;;;;19.33;13.02;;;;;;;15.33;96.49;102060.81;5073699;28;20029;-36
2021/08/30 05:25:45;;;;;;;18.02;13.07;;;;;;;15.33;96.45;102058.94;5073723;28;20047;-36
2021/08/30 05:28:10;;;;;;;19.95;13.32;;;;;;;15.30;96.75;102050.38;5073723;28;20036;-36
2021/08/30 05:30:36;;;;;;;17.80;12.57;;;;;;;15.39;96.52;102059.88;5073786;28;20036;-36
2021/08/30 05:33:03;;;;;;;19.05;13.02;;;;;;;15.39;96.31;102060.72;5073442;28;20095;-36
2021/08/30 05:35:28;;;;;;;19.52;13.57;;;;;;;15.40;96.62;102065.09;5073413;28;20108;-35
2021/08/30 05:37:54;;;;;;;17.93;12.53;;;;;;;15.39;96.49;102063.44;5073793;28;20104;-36
2021/08/30 05:40:19;;;;;;;16.50;12.70;;;;;;;15.38;96.32;102056.31;5073533;28;20259;-36
2021/08/30 05:42:45;;;;;;;17.05;13.20;;;;;;;15.35;96.30;102054.06;5073622;28;20266;-36
2021/08/30 05:45:10;;;;;;;20.67;13.25;;;;;;;15.48;96.23;102077.56;5072967;28;20154;-36
2021/08/30 05:47:36;;;;;;;20.67;13.48;;;;;;;15.47;96.24;102067.72;5073738;28;20068;-36
2021/08/30 05:50:01;;;;;;;17.73;12.65;;;;;;;15.51;96.63;102082.53;5072201;28;20028;-36
2021/08/30 05:52:27;;;;;;;16.67;13.00;;;;;;;15.50;96.62;102075.41;5073155;28;20475;-36
2021/08/30 05:54:52;;;;;;;;;;;;;;;15.59;96.08;102078.66;5073274;28;20028;-36
2021/08/30 05:57:18;;;;;;;19.25;13.48;;;;;;;15.54;96.45;102076.63;5073546;28;19904;-36
2021/08/30 05:59:43;;;;;;;20.08;13.75;;;;;;;15.56;96.60;102071.75;5073446;28;20522;-36
2021/08/30 06:02:10;;;;;;;19.63;13.60;;;;;;;15.57;95.96;102078.06;5072862;28;20486;-36
2021/08/30 06:04:36;;;;;;;23.50;14.50;;;;;;;15.55;96.62;102080.19;5072950;28;20039;-36
2021/08/30 06:07:01;;;;;;;19.35;14.40;;;;;;;15.55;96.84;102080.19;5073055;28;20025;-36
2021/08/30 06:09:29;;;;;;;22.15;14.65;;;;;;;15.59;96.58;102078.66;5073126;28;20427;-36
2021/08/30 06:11:54;;;;;;;19.90;14.57;;;;;;;15.53;96.26;102057.78;5072185;28;20344;-36
2021/08/30 06:14:19;;;;;;;28.92;14.85;;;;;;;15.59;97.01;102079.47;5072549;28;20099;-36
2021/08/30 06:16:45;;;;;;;23.53;15.60;;;;;;;15.64;97.16;102081.53;5073228;28;20024;-36
2021/08/30 06:19:10;;;;;;;23.73;14.97;;;;;;;15.60;96.73;102072.13;5072634;28;20796;-36
2021/08/30 06:21:35;;;;;;;;;;;;;;;15.76;96.12;102081.53;5073228;28;20043;-36
2021/08/30 06:24:01;;;;;;;22.33;13.93;;;;;;;15.74;96.66;102089.13;5072751;28;20356;-36
2021/08/30 06:26:26;;;;;;;21.03;14.27;;;;;;;15.72;96.83;102091.28;5072859;28;20247;-36
2021/08/30 06:28:51;;;;;;;20.23;14.52;;;;;;;15.63;96.88;102067.06;5072832;28;20729;-36
2021/08/30 06:31:16;;;;;;;23.40;15.20;;;;;;;15.70;96.26;102077.84;5072720;28;20028;-36
2021/08/30 06:33:42;;;;;;;21.13;15.17;;;;;;;15.78;96.81;102090.34;5072804;28;20711;-36
2021/08/30 06:36:09;;;;;;;24.23;15.70;;;;;;;15.79;96.63;102091.97;5072454;28;20243;-36
2021/08/30 06:38:35;;;;;;;23.38;15.52;;;;;;;15.80;96.71;102099.09;5072628;28;20327;-36
2021/08/30 06:41:00;;;;;;;24.45;16.23;;;;;;;15.81;96.61;102089.84;5072448;28;20465;-36
2021/08/30 06:43:25;;;;;;;22.43;15.27;;;;;;;15.82;96.58;102092.34;5074916;28;20037;-36
2021/08/30 06:45:50;;;;;;;;;;;;;;;15.87;96.25;102094.38;5077333;28;20103;-36
2021/08/30 06:48:16;;;;;;;25.17;16.83;;;;;;;15.82;96.82;102094.25;5077412;28;20062;-36
2021/08/30 06:50:42;;;;;;;;;;;;;;;15.88;95.73;102090.56;5077636;28;20149;-36
2021/08/30 06:53:08;;;;;;;21.33;14.82;;;;;;;15.87;95.85;102097.09;5076409;28;20279;-36
2021/08/30 06:55:33;;;;;;;21.65;15.82;;;;;;;15.87;96.42;102094.38;5076847;28;20166;-36
2021/08/30 06:57:59;;;;;;;22.17;15.70;;;;;;;15.89;96.38;102103.97;5076435;28;20116;-36
2021/08/30 07:00:25;;;;;;;23.02;16.55;;;;;;;15.74;96.66;102067.31;5076933;28;20158;-36
2021/08/30 07:02:50;;;;;;;;;;;;;;;16.00;95.85;102096.84;5076983;28;20462;-36
2021/08/30 07:05:15;;;;;;;21.42;16.00;;;;;;;15.93;96.22;102091.53;5076557;28;20002;-36
2021/08/30 07:07:41;;;;;;;22.08;16.42;;;;;;;16.01;96.54;102095.81;5076329;28;20054;-36
2021/08/30 07:10:06;;;;;;;25.70;17.13;;;;;;;16.04;96.65;102095.31;5076077;28;20479;-36
2021/08/30 07:12:32;;;;;;;21.80;15.75;;;;;;;16.02;96.12;102075.63;5076595;28;20251;-36
2021/08/30 07:14:57;;;;;;;23.88;16.38;;;;;;;16.09;96.18;102084.53;5076024;28;20431;-36
2021/08/30 07:17:22;;;;;;;;;;;;;;;16.22;95.89;102095.19;5076569;28;20475;-36
2021/08/30 07:19:48;;;;;;;23.87;15.70;;;;;;;16.26;96.02;102087.38;5076535;28;19910;-36
2021/08/30 07:22:13;;;;;;;21.90;15.13;;;;;;;16.30;96.10;102093.16;5076544;28;20302;-36
2021/08/30 07:24:39;;;;;;;;;;;;;;;16.40;95.66;102096.16;5076374;28;20029;-36
2021/08/30 07:27:04;;;;;;;24.23;15.85;;;;;;;16.43;95.47;102090.19;5076823;28;19958;-36
2021/08/30 07:29:32;;;;;;;;;;;;;;;16.52;95.11;102093.38;5076341;28;20047;-36
2021/08/30 07:31:58;;;;;;;20.52;15.60;;;;;;;16.53;94.96;102087.66;5075925;28;19920;-36
2021/08/30 07:34:26;;;;;;;20.63;15.80;;;;;;;16.57;95.17;102099.78;5075874;28;20338;-36
2021/08/30 07:36:53;;;;;;;22.65;16.08;;;;;;;16.55;94.90;102096.47;5075461;28;20518;-36
2021/08/30 07:39:19;;;;;;;21.85;15.52;;;;;;;16.55;94.70;102095.66;5075429;28;20082;-36
2021/08/30 07:41:45;;;;;;;23.63;15.80;;;;;;;16.55;94.82;102082.81;5075775;28;20027;-36
2021/08/30 07:44:10;;;;;;;25.10;17.13;;;;;;;16.70;94.89;102098.69;5075625;28;20016;-36
2021/08/30 07:46:35;;;;;;;22.00;16.60;;;;;;;16.73;94.09;102104.50;5076367;28;20111;-36
2021/08/30 07:49:00;;;;;;;;;;;;;;;16.83;94.39;102109.34;5076248;28;20036;-36
2021/08/30 07:51:26;;;;;;;22.53;15.53;;;;;;;16.73;93.64;102093.59;5075878;28;19904;-36
2021/08/30 07:53:51;;;;;;;22.42;16.15;;;;;;;16.79;93.40;102093.69;5074575;28;20267;-36
2021/08/30 07:56:17;;;;;;;24.77;16.83;;;;;;;16.85;92.97;102101.78;5074950;28;20043;-36
2021/08/30 07:58:42;;;;;;;;;;;;;;;16.95;93.55;102101.97;5075766;28;20032;-36
2021/08/30 08:01:07;;;;;;;23.75;15.50;;;;;;;16.91;93.44;102094.50;5075409;28;19948;-36
2021/08/30 08:03:33;;;;;;;;;;;;;;;17.07;93.37;102109.28;5075939;28;20430;-36
2021/08/30 08:05:58;;;;;;;25.02;16.17;;;;;;;17.10;92.56;102114.28;5075327;28;20320;-36
2021/08/30 08:08:23;;;;;;;;;;;;;;;17.18;92.91;102112.00;5076374;28;20021;-36
2021/08/30 08:10:49;;;;;;;26.08;16.90;;;;;;;17.21;93.18;102121.59;5075491;28;19990;-36
2021/08/30 08:13:14;;;;;;;22.00;16.33;;;;;;;17.28;91.85;102124.19;5074728;28;20107;-36
2021/08/30 08:15:40;;;;;;;;;;;;;;;17.41;92.51;102111.03;5075785;28;20384;-36
2021/08/30 08:18:05;;;;;;;21.50;15.65;;;;;;;17.55;91.16;102111.53;5075895;28;20011;-38
2021/08/30 08:20:31;;;;;;;;;;;;;;;17.75;91.41;102111.91;5075973;28;20398;-36
2021/08/30 08:22:57;;;;;;;28.42;16.13;;;;;;;17.93;90.59;102107.28;5075292;28;19904;-36
2021/08/30 08:25:23;;;;;;;21.70;16.60;;;;;;;17.98;88.03;102110.09;5075215;28;20043;-36
2021/08/30 08:27:48;;;;;;;;;;;;;;;18.21;89.59;102106.34;5075888;28;20436;-36
2021/08/30 08:30:13;;;;;;;23.00;15.77;;;;;;;18.12;87.77;102084.03;5074845;28;19912;-36
2021/08/30 08:32:41;;;;;;;;;;;;;;;18.40;88.18;102115.13;5075106;28;20312;-36
2021/08/30 08:35:06;;;;;;;18.33;13.88;;;;;;;18.27;85.87;102113.56;5075106;28;19954;-36
2021/08/30 08:37:32;;;;;;;;;;;;;;;18.32;87.65;102112.78;5075144;28;20472;-36
2021/08/30 08:39:57;;;;;;;18.00;13.85;;;;;;;18.26;85.54;102087.25;5074917;28;20002;-36
2021/08/30 08:42:22;;;;;;;;;;;;;;;18.57;86.72;102124.09;5075305;28;20164;-36
2021/08/30 08:44:48;;;;;;;17.30;13.13;;;;;;;18.60;84.48;102107.16;5075056;28;19946;-36
2021/08/30 08:47:17;;;;;;;;;;;;;;;18.82;83.77;102128.28;5075025;28;20266;-36
2021/08/30 08:49:44;;;;;;;18.67;14.20;;;;;;;18.84;84.02;102124.22;5074755;28;19999;-36
2021/08/30 08:52:09;;;;;;;18.13;13.60;;;;;;;18.86;82.61;102126.69;5074289;28;20017;-36
2021/08/30 08:54:35;;;;;;;;;;;;;;;18.94;83.62;102123.50;5074734;28;20357;-36
2021/08/30 08:57:03;;;;;;;17.33;12.77;;;;;;;18.78;81.81;102109.59;5074076;28;19908;-36
2021/08/30 08:59:29;;;;;;;16.67;12.55;;;;;;;18.71;82.17;102119.94;5074263;28;20681;-36
2021/08/30 09:01:58;;;;;;;;;;;;;;;18.82;83.93;102125.53;5074854;28;20020;-36
2021/08/30 09:04:35;;;;;;;16.00;12.77;;;;;;;18.67;83.34;102118.75;5074472;28;20341;-36
2021/08/30 09:07:12;;;;;;;19.65;12.68;;;;;;;18.59;82.71;102121.91;5074350;28;20433;-36
2021/08/30 09:09:39;;;;;;;14.32;12.20;;;;;;;18.53;82.66;102104.59;5073723;28;20056;-36
2021/08/30 09:12:04;;;;;;;16.65;11.85;;;;;;;18.64;83.34;102118.41;5074582;28;20039;-36
2021/08/30 09:14:30;;;;;;;;;;;;;;;18.76;84.00;102127.41;5074156;28;20461;-36
2021/08/30 09:17:08;;;;;;;15.10;11.40;;;;;;;18.68;83.12;102117.69;5074087;28;19912;-36
2021/08/30 09:19:34;;;;;;;18.45;12.70;;;;;;;18.66;82.85;102117.09;5074023;28;20020;-36
2021/08/30 09:22:00;;;;;;;;;;;;;;;18.81;83.58;102119.22;5074991;28;20016;-36
2021/08/30 09:24:26;;;;;;;17.38;11.50;;;;;;;18.71;82.63;102128.16;5074107;28;19909;-36
2021/08/30 09:26:52;;;;;;;21.00;12.82;;;;;;;18.70;82.86;102118.28;5074356;28;20036;-36
2021/08/30 09:29:24;;;;;;;16.63;12.40;;;;;;;18.72;82.08;102121.59;5073276;28;20139;-36
2021/08/30 09:31:56;;;;;;;20.63;13.20;;;;;;;18.74;82.25;102119.44;5073462;28;20461;-36
2021/08/30 09:34:21;;;;;;;15.52;11.75;;;;;;;18.76;82.65;102122.75;5073437;28;20059;-36
2021/08/30 09:36:47;;;;;;;;;;;;;;;18.92;83.67;102117.44;5073301;28;20063;-36
2021/08/30 09:39:14;;;;;;;16.38;11.75;;;;;;;18.87;81.25;102117.38;5073052;28;19951;-36
2021/08/30 09:41:43;;;;;;;16.50;12.18;;;;;;;18.90;81.45;102093.03;5073348;28;20040;-36
2021/08/30 09:44:09;;;;;;;16.73;11.88;;;;;;;19.17;81.15;102104.00;5073002;28;20476;-36
2021/08/30 09:46:34;;;;;;;14.70;11.43;;;;;;;19.30;80.07;102092.63;5073467;28;20035;-36
2021/08/30 09:49:06;;;;;;;;;;;;;;;19.63;81.29;102104.50;5073964;28;20032;-36
2021/08/30 09:51:37;;;;;;;13.02;10.00;;;;;;;19.91;78.27;102099.75;5073906;28;19931;-36
2021/08/30 09:54:02;;;;;;;13.90;10.70;;;;;;;20.03;76.29;102103.16;5073530;28;20107;-36
2021/08/30 09:56:27;;;;;;;;;;;;;;;20.28;79.00;102100.56;5073259;28;20421;-36
2021/08/30 09:58:54;;;;;;;14.88;9.95;;;;;;;20.20;75.52;102098.31;5073146;28;20401;-36
2021/08/30 10:01:20;;;;;;;14.02;10.32;;;;;;;20.17;76.11;102104.34;5073149;28;20039;-36
2021/08/30 10:03:45;;;;;;;;;;;;;;;20.32;75.15;102106.38;5073190;28;20036;-36
2021/08/30 10:06:11;;;;;;;17.42;9.73;;;;;;;20.03;75.13;102097.66;5073080;28;19967;-36
2021/08/30 10:08:37;;;;;;;;;;;;;;;20.14;76.08;102093.91;5073370;28;20095;-36
2021/08/30 10:11:03;;;;;;;13.48;9.55;;;;;;;19.84;75.36;102093.69;5073406;28;20007;-36
2021/08/30 10:13:28;;;;;;;;;;;;;;;19.90;77.28;102092.63;5072925;28;20438;-36
2021/08/30 10:15:54;;;;;;;16.13;10.07;;;;;;;19.69;77.17;102086.97;5073017;28;19908;-36
2021/08/30 10:18:19;;;;;;;;;;;;;;;19.83;78.37;102094.78;5072817;28;20277;-36
2021/08/30 10:20:49;;;;;;;12.90;9.60;;;;;;;19.60;76.01;102096.78;5072788;28;20426;-36
2021/08/30 10:23:15;;;;;;;13.60;9.43;;;;;;;19.65;76.85;102096.81;5072805;28;20024;-36
2021/08/30 10:25:41;;;;;;;;;;;;;;;19.76;78.16;102098.59;5073678;28;20051;-36
2021/08/30 10:28:13;;;;;;;14.33;9.73;;;;;;;19.56;76.25;102095.63;5072744;28;19919;-36
2021/08/30 10:30:51;;;;;;;13.98;9.57;;;;;;;19.58;77.13;102090.72;5073528;28;20031;-36
2021/08/30 10:33:21;;;;;;;13.63;9.13;;;;;;;19.69;75.83;102095.22;5073288;28;20380;-36
2021/08/30 10:35:47;;;;;;;14.10;9.38;;;;;;;19.66;73.26;102094.91;5072783;28;20035;-36
2021/08/30 10:38:16;;;;;;;;;;;;;;;19.77;75.96;102091.19;5073344;28;20020;-36
2021/08/30 10:40:42;;;;;;;11.98;8.30;;;;;;;19.65;74.90;102080.34;5072880;28;19911;-36
2021/08/30 10:43:07;;;;;;;;;;;;;;;19.88;76.58;102089.34;5072776;28;20025;-36
2021/08/30 10:45:37;;;;;;;10.77;8.13;;;;;;;19.74;75.04;102095.25;5073379;28;19908;-36
2021/08/30 10:48:14;;;;;;;12.02;8.52;;;;;;;19.66;74.23;102076.53;5073107;28;20025;-36
2021/08/30 10:50:44;;;;;;;11.18;8.40;;;;;;;19.78;73.88;102096.41;5072514;28;20020;-36
2021/08/30 10:53:17;;;;;;;11.98;8.20;;;;;;;19.77;74.31;102093.91;5073147;28;20055;-36
2021/08/30 10:55:44;;;;;;;14.30;8.88;;;;;;;19.72;73.73;102097.44;5072837;28;20024;-36
2021/08/30 10:58:13;;;;;;;10.73;7.75;;;;;;;19.62;73.70;102080.91;5072086;28;20063;-36
2021/08/30 11:00:38;;;;;;;10.75;8.10;;;;;;;19.74;73.12;102087.03;5073245;28;20161;-36
2021/08/30 11:03:04;;;;;;;;;;;;;;;19.94;75.77;102096.50;5073500;28;20024;-36
2021/08/30 11:05:31;;;;;;;13.77;8.45;;;;;;;20.01;72.89;102094.38;5073078;28;20062;-36
2021/08/30 11:07:56;;;;;;;11.98;8.20;;;;;;;20.11;72.48;102074.41;5072469;28;20033;-36
2021/08/30 11:10:24;;;;;;;;;;;;;;;20.37;74.31;102089.09;5073106;28;20480;-36
2021/08/30 11:12:49;;;;;;;10.98;8.43;;;;;;;20.36;70.82;102087.44;5072224;28;19962;-36
2021/08/30 11:15:15;;;;;;;;;;;;;;;20.48;74.02;102085.31;5073208;28;20028;-36
2021/08/30 11:17:40;;;;;;;11.00;8.25;;;;;;;20.23;73.14;102095.06;5072743;28;19904;-36
2021/08/30 11:20:06;;;;;;;;;;;;;;;20.32;74.22;102090.72;5073008;28;20364;-36
2021/08/30 11:22:32;;;;;;;12.15;8.75;;;;;;;20.00;72.11;102090.78;5072790;28;19905;-36
2021/08/30 11:24:59;;;;;;;12.48;9.50;;;;;;;19.94;72.58;102085.53;5072655;28;20027;-36
2021/08/30 11:27:29;;;;;;;11.32;8.68;;;;;;;19.96;71.84;102097.06;5072601;28;20365;-36